sensor_id;sensor_type;location;lat;lon;timestamp;temperature;humidity
65203;HTU21D;51788;45.124;38.966;2022-11-15T00:01:25;4.04;82.66
65203;HTU21D;51788;45.124;38.966;2022-11-15T00:04:10;3.99;82.69
65203;HTU21D;51788;45.124;38.966;2022-11-15T00:06:54;3.94;82.66
65203;HTU21D;51788;45.124;38.966;2022-11-15T00:09:39;3.92;82.63
65203;HTU21D;51788;45.124;38.966;2022-11-15T00:12:23;3.87;82.69
65203;HTU21D;51788;45.124;38.966;2022-11-15T00:15:08;3.84;82.66
65203;HTU21D;51788;45.124;38.966;2022-11-15T00:17:53;3.82;82.62
65203;HTU21D;51788;45.124;38.966;2022-11-15T00:20:37;3.73;82.67
65203;HTU21D;51788;45.124;38.966;2022-11-15T00:23:22;3.68;82.71
65203;HTU21D;51788;45.124;38.966;2022-11-15T00:26:12;3.61;82.86
65203;HTU21D;51788;45.124;38.966;2022-11-15T00:28:57;3.55;83.03
65203;HTU21D;51788;45.124;38.966;2022-11-15T00:31:41;3.54;83.06
65203;HTU21D;51788;45.124;38.966;2022-11-15T00:34:26;3.54;83.01
65203;HTU21D;51788;45.124;38.966;2022-11-15T00:37:10;3.52;82.94
65203;HTU21D;51788;45.124;38.966;2022-11-15T00:39:55;3.50;83.00
65203;HTU21D;51788;45.124;38.966;2022-11-15T00:42:39;3.50;83.00
65203;HTU21D;51788;45.124;38.966;2022-11-15T00:45:24;3.53;82.97
65203;HTU21D;51788;45.124;38.966;2022-11-15T00:48:09;3.49;82.99
65203;HTU21D;51788;45.124;38.966;2022-11-15T00:50:53;3.49;83.04
65203;HTU21D;51788;45.124;38.966;2022-11-15T00:53:38;3.48;82.98
65203;HTU21D;51788;45.124;38.966;2022-11-15T00:56:22;3.45;83.02
65203;HTU21D;51788;45.124;38.966;2022-11-15T00:59:07;3.42;83.06
65203;HTU21D;51788;45.124;38.966;2022-11-15T01:01:51;3.39;83.07
65203;HTU21D;51788;45.124;38.966;2022-11-15T01:04:36;3.38;83.07
65203;HTU21D;51788;45.124;38.966;2022-11-15T01:07:21;3.34;83.06
65203;HTU21D;51788;45.124;38.966;2022-11-15T01:10:06;3.33;83.12
65203;HTU21D;51788;45.124;38.966;2022-11-15T01:12:50;3.31;83.07
65203;HTU21D;51788;45.124;38.966;2022-11-15T01:15:39;3.28;83.14
65203;HTU21D;51788;45.124;38.966;2022-11-15T01:18:23;3.17;83.29
65203;HTU21D;51788;45.124;38.966;2022-11-15T01:21:10;3.12;83.42
65203;HTU21D;51788;45.124;38.966;2022-11-15T01:23:55;3.12;83.37
65203;HTU21D;51788;45.124;38.966;2022-11-15T01:26:40;3.10;83.32
65203;HTU21D;51788;45.124;38.966;2022-11-15T01:29:25;3.04;83.39
65203;HTU21D;51788;45.124;38.966;2022-11-15T01:32:09;3.03;83.42
65203;HTU21D;51788;45.124;38.966;2022-11-15T01:34:54;2.93;83.48
65203;HTU21D;51788;45.124;38.966;2022-11-15T01:37:38;2.81;83.70
65203;HTU21D;51788;45.124;38.966;2022-11-15T01:40:23;2.73;83.89
65203;HTU21D;51788;45.124;38.966;2022-11-15T01:46:31;2.69;83.85
65203;HTU21D;51788;45.124;38.966;2022-11-15T01:49:19;2.56;84.02
65203;HTU21D;51788;45.124;38.966;2022-11-15T01:52:11;2.47;84.16
65203;HTU21D;51788;45.124;38.966;2022-11-15T01:57:59;2.35;84.17
65203;HTU21D;51788;45.124;38.966;2022-11-15T02:00:46;2.31;84.10
65203;HTU21D;51788;45.124;38.966;2022-11-15T02:03:51;2.26;84.27
65203;HTU21D;51788;45.124;38.966;2022-11-15T02:06:36;2.23;84.26
65203;HTU21D;51788;45.124;38.966;2022-11-15T02:09:21;2.21;84.30
65203;HTU21D;51788;45.124;38.966;2022-11-15T02:12:07;2.20;84.19
65203;HTU21D;51788;45.124;38.966;2022-11-15T02:14:53;2.13;84.35
65203;HTU21D;51788;45.124;38.966;2022-11-15T02:30:04;2.82;84.31
65203;HTU21D;51788;45.124;38.966;2022-11-15T02:36:31;2.91;84.24
65203;HTU21D;51788;45.124;38.966;2022-11-15T02:39:39;2.88;84.24
65203;HTU21D;51788;45.124;38.966;2022-11-15T02:42:28;2.83;84.25
65203;HTU21D;51788;45.124;38.966;2022-11-15T02:45:51;2.76;84.29
65203;HTU21D;51788;45.124;38.966;2022-11-15T02:48:37;2.71;84.35
65203;HTU21D;51788;45.124;38.966;2022-11-15T02:51:23;2.71;84.48
65203;HTU21D;51788;45.124;38.966;2022-11-15T02:54:12;2.74;84.58
65203;HTU21D;51788;45.124;38.966;2022-11-15T02:57:01;2.74;84.54
65203;HTU21D;51788;45.124;38.966;2022-11-15T03:03:05;2.70;84.47
65203;HTU21D;51788;45.124;38.966;2022-11-15T03:06:09;2.68;84.46
65203;HTU21D;51788;45.124;38.966;2022-11-15T03:09:09;2.70;84.51
65203;HTU21D;51788;45.124;38.966;2022-11-15T03:12:01;2.74;84.38
65203;HTU21D;51788;45.124;38.966;2022-11-15T03:15:16;2.73;84.26
65203;HTU21D;51788;45.124;38.966;2022-11-15T03:18:13;2.73;84.16
65203;HTU21D;51788;45.124;38.966;2022-11-15T03:21:05;2.71;84.14
65203;HTU21D;51788;45.124;38.966;2022-11-15T03:23:51;2.70;84.04
65203;HTU21D;51788;45.124;38.966;2022-11-15T03:26:38;2.65;84.07
65203;HTU21D;51788;45.124;38.966;2022-11-15T03:29:30;2.61;84.10
65203;HTU21D;51788;45.124;38.966;2022-11-15T03:32:19;2.61;84.11
65203;HTU21D;51788;45.124;38.966;2022-11-15T03:35:20;2.44;84.19
65203;HTU21D;51788;45.124;38.966;2022-11-15T03:38:12;2.16;84.68
65203;HTU21D;51788;45.124;38.966;2022-11-15T03:41:01;1.92;85.10
65203;HTU21D;51788;45.124;38.966;2022-11-15T03:43:56;1.64;85.48
65203;HTU21D;51788;45.124;38.966;2022-11-15T03:46:50;1.46;85.77
65203;HTU21D;51788;45.124;38.966;2022-11-15T03:49:45;1.27;85.83
65203;HTU21D;51788;45.124;38.966;2022-11-15T03:52:33;1.19;86.00
65203;HTU21D;51788;45.124;38.966;2022-11-15T03:55:19;1.22;85.76
65203;HTU21D;51788;45.124;38.966;2022-11-15T03:58:04;1.20;85.43
65203;HTU21D;51788;45.124;38.966;2022-11-15T04:00:49;1.08;85.35
65203;HTU21D;51788;45.124;38.966;2022-11-15T04:03:34;0.97;85.50
65203;HTU21D;51788;45.124;38.966;2022-11-15T04:06:18;0.91;85.48
65203;HTU21D;51788;45.124;38.966;2022-11-15T04:09:03;0.93;85.36
65203;HTU21D;51788;45.124;38.966;2022-11-15T04:11:47;0.92;85.34
65203;HTU21D;51788;45.124;38.966;2022-11-15T04:14:31;0.88;85.37
65203;HTU21D;51788;45.124;38.966;2022-11-15T04:17:16;0.82;85.29
65203;HTU21D;51788;45.124;38.966;2022-11-15T04:20:01;0.72;85.32
65203;HTU21D;51788;45.124;38.966;2022-11-15T04:23:24;0.61;85.43
65203;HTU21D;51788;45.124;38.966;2022-11-15T04:26:27;0.54;85.55
65203;HTU21D;51788;45.124;38.966;2022-11-15T04:29:12;0.49;85.33
65203;HTU21D;51788;45.124;38.966;2022-11-15T04:32:14;0.46;85.58
65203;HTU21D;51788;45.124;38.966;2022-11-15T04:34:59;0.52;85.52
65203;HTU21D;51788;45.124;38.966;2022-11-15T04:37:43;0.57;85.45
65203;HTU21D;51788;45.124;38.966;2022-11-15T04:40:28;0.62;85.24
65203;HTU21D;51788;45.124;38.966;2022-11-15T04:43:13;0.61;85.32
65203;HTU21D;51788;45.124;38.966;2022-11-15T04:45:57;0.65;85.35
65203;HTU21D;51788;45.124;38.966;2022-11-15T04:48:42;0.68;85.29
65203;HTU21D;51788;45.124;38.966;2022-11-15T04:51:26;0.82;85.21
65203;HTU21D;51788;45.124;38.966;2022-11-15T04:54:11;0.93;85.10
65203;HTU21D;51788;45.124;38.966;2022-11-15T04:56:55;1.01;85.02
65203;HTU21D;51788;45.124;38.966;2022-11-15T04:59:40;1.09;85.39
65203;HTU21D;51788;45.124;38.966;2022-11-15T05:02:24;1.10;85.38
65203;HTU21D;51788;45.124;38.966;2022-11-15T05:05:28;1.17;85.69
65203;HTU21D;51788;45.124;38.966;2022-11-15T05:08:13;1.21;85.54
65203;HTU21D;51788;45.124;38.966;2022-11-15T05:10:59;1.32;85.43
65203;HTU21D;51788;45.124;38.966;2022-11-15T05:13:43;1.38;85.55
65203;HTU21D;51788;45.124;38.966;2022-11-15T05:16:28;1.36;86.08
65203;HTU21D;51788;45.124;38.966;2022-11-15T05:19:12;1.36;86.33
65203;HTU21D;51788;45.124;38.966;2022-11-15T05:21:57;1.35;86.45
65203;HTU21D;51788;45.124;38.966;2022-11-15T05:24:41;1.39;86.62
65203;HTU21D;51788;45.124;38.966;2022-11-15T05:27:26;1.45;86.38
65203;HTU21D;51788;45.124;38.966;2022-11-15T05:30:10;1.48;86.40
65203;HTU21D;51788;45.124;38.966;2022-11-15T05:32:55;1.51;86.33
65203;HTU21D;51788;45.124;38.966;2022-11-15T05:35:42;1.50;86.23
65203;HTU21D;51788;45.124;38.966;2022-11-15T05:38:30;1.51;86.37
65203;HTU21D;51788;45.124;38.966;2022-11-15T05:41:16;1.51;86.75
65203;HTU21D;51788;45.124;38.966;2022-11-15T05:44:02;1.57;86.80
65203;HTU21D;51788;45.124;38.966;2022-11-15T05:46:51;1.62;86.93
65203;HTU21D;51788;45.124;38.966;2022-11-15T05:49:40;1.67;86.82
65203;HTU21D;51788;45.124;38.966;2022-11-15T05:52:29;1.70;86.99
65203;HTU21D;51788;45.124;38.966;2022-11-15T05:55:14;1.72;87.15
65203;HTU21D;51788;45.124;38.966;2022-11-15T05:58:00;1.79;87.03
65203;HTU21D;51788;45.124;38.966;2022-11-15T06:00:45;1.84;86.94
65203;HTU21D;51788;45.124;38.966;2022-11-15T06:03:30;2.00;86.77
65203;HTU21D;51788;45.124;38.966;2022-11-15T06:06:14;2.19;86.54
65203;HTU21D;51788;45.124;38.966;2022-11-15T06:08:58;2.32;86.32
65203;HTU21D;51788;45.124;38.966;2022-11-15T06:11:43;2.42;86.21
65203;HTU21D;51788;45.124;38.966;2022-11-15T06:14:27;2.49;86.16
65203;HTU21D;51788;45.124;38.966;2022-11-15T06:17:12;2.51;86.24
65203;HTU21D;51788;45.124;38.966;2022-11-15T06:19:56;2.55;86.42
65203;HTU21D;51788;45.124;38.966;2022-11-15T06:22:41;2.60;86.49
65203;HTU21D;51788;45.124;38.966;2022-11-15T06:25:27;2.58;86.83
65203;HTU21D;51788;45.124;38.966;2022-11-15T06:28:11;2.62;86.90
65203;HTU21D;51788;45.124;38.966;2022-11-15T06:31:01;2.66;86.96
65203;HTU21D;51788;45.124;38.966;2022-11-15T06:33:46;2.70;87.09
65203;HTU21D;51788;45.124;38.966;2022-11-15T06:36:30;2.80;86.99
65203;HTU21D;51788;45.124;38.966;2022-11-15T06:39:15;2.88;87.02
65203;HTU21D;51788;45.124;38.966;2022-11-15T06:41:59;2.96;87.05
65203;HTU21D;51788;45.124;38.966;2022-11-15T06:44:44;3.01;87.32
65203;HTU21D;51788;45.124;38.966;2022-11-15T06:47:28;3.08;87.41
65203;HTU21D;51788;45.124;38.966;2022-11-15T06:50:13;3.19;87.54
65203;HTU21D;51788;45.124;38.966;2022-11-15T06:53:01;3.33;87.48
65203;HTU21D;51788;45.124;38.966;2022-11-15T06:55:46;3.44;87.55
65203;HTU21D;51788;45.124;38.966;2022-11-15T06:58:31;3.56;87.57
65203;HTU21D;51788;45.124;38.966;2022-11-15T07:01:15;3.69;87.57
65203;HTU21D;51788;45.124;38.966;2022-11-15T07:04:00;3.82;87.50
65203;HTU21D;51788;45.124;38.966;2022-11-15T07:06:46;3.89;87.55
65203;HTU21D;51788;45.124;38.966;2022-11-15T07:09:31;4.00;87.64
65203;HTU21D;51788;45.124;38.966;2022-11-15T07:12:16;4.15;87.54
65203;HTU21D;51788;45.124;38.966;2022-11-15T07:15:00;4.28;87.35
65203;HTU21D;51788;45.124;38.966;2022-11-15T07:17:45;4.37;87.34
65203;HTU21D;51788;45.124;38.966;2022-11-15T07:20:29;4.48;87.34
65203;HTU21D;51788;45.124;38.966;2022-11-15T07:23:14;4.60;87.26
65203;HTU21D;51788;45.124;38.966;2022-11-15T07:25:59;4.76;87.15
65203;HTU21D;51788;45.124;38.966;2022-11-15T07:28:44;4.78;87.03
65203;HTU21D;51788;45.124;38.966;2022-11-15T07:31:28;4.84;87.11
65203;HTU21D;51788;45.124;38.966;2022-11-15T07:34:13;4.90;87.02
65203;HTU21D;51788;45.124;38.966;2022-11-15T07:36:57;4.91;86.95
65203;HTU21D;51788;45.124;38.966;2022-11-15T07:39:42;4.95;86.89
65203;HTU21D;51788;45.124;38.966;2022-11-15T07:42:26;4.96;86.76
65203;HTU21D;51788;45.124;38.966;2022-11-15T07:45:29;5.03;86.81
65203;HTU21D;51788;45.124;38.966;2022-11-15T07:48:13;5.00;86.64
65203;HTU21D;51788;45.124;38.966;2022-11-15T07:50:58;4.98;86.80
65203;HTU21D;51788;45.124;38.966;2022-11-15T07:53:43;5.01;86.78
65203;HTU21D;51788;45.124;38.966;2022-11-15T07:56:28;5.03;86.72
65203;HTU21D;51788;45.124;38.966;2022-11-15T07:59:12;5.04;86.74
65203;HTU21D;51788;45.124;38.966;2022-11-15T08:01:57;5.06;86.59
65203;HTU21D;51788;45.124;38.966;2022-11-15T08:04:41;5.07;86.41
65203;HTU21D;51788;45.124;38.966;2022-11-15T08:07:29;5.04;86.45
65203;HTU21D;51788;45.124;38.966;2022-11-15T08:10:14;5.06;86.45
65203;HTU21D;51788;45.124;38.966;2022-11-15T08:13:11;5.10;86.41
65203;HTU21D;51788;45.124;38.966;2022-11-15T08:16:00;5.11;86.47
65203;HTU21D;51788;45.124;38.966;2022-11-15T08:18:46;5.08;86.35
65203;HTU21D;51788;45.124;38.966;2022-11-15T08:21:30;5.18;86.42
65203;HTU21D;51788;45.124;38.966;2022-11-15T08:24:15;5.28;86.26
65203;HTU21D;51788;45.124;38.966;2022-11-15T08:27:00;5.33;85.96
65203;HTU21D;51788;45.124;38.966;2022-11-15T08:29:45;5.34;85.93
65203;HTU21D;51788;45.124;38.966;2022-11-15T08:32:31;5.41;85.84
65203;HTU21D;51788;45.124;38.966;2022-11-15T08:35:16;5.42;85.77
65203;HTU21D;51788;45.124;38.966;2022-11-15T08:38:01;5.51;85.54
65203;HTU21D;51788;45.124;38.966;2022-11-15T08:40:45;5.57;84.85
65203;HTU21D;51788;45.124;38.966;2022-11-15T08:43:30;5.64;84.48
65203;HTU21D;51788;45.124;38.966;2022-11-15T08:46:15;5.72;84.45
65203;HTU21D;51788;45.124;38.966;2022-11-15T08:48:59;5.85;83.62
65203;HTU21D;51788;45.124;38.966;2022-11-15T08:51:45;5.91;83.42
65203;HTU21D;51788;45.124;38.966;2022-11-15T08:54:29;6.01;83.10
65203;HTU21D;51788;45.124;38.966;2022-11-15T08:57:13;6.20;83.26
65203;HTU21D;51788;45.124;38.966;2022-11-15T08:59:58;6.36;81.85
65203;HTU21D;51788;45.124;38.966;2022-11-15T09:02:42;6.41;79.59
65203;HTU21D;51788;45.124;38.966;2022-11-15T09:05:27;6.43;79.71
65203;HTU21D;51788;45.124;38.966;2022-11-15T09:08:11;6.56;79.95
65203;HTU21D;51788;45.124;38.966;2022-11-15T09:10:56;6.68;80.46
65203;HTU21D;51788;45.124;38.966;2022-11-15T09:13:41;6.85;80.18
65203;HTU21D;51788;45.124;38.966;2022-11-15T09:16:26;6.99;79.31
65203;HTU21D;51788;45.124;38.966;2022-11-15T09:19:10;6.98;78.48
65203;HTU21D;51788;45.124;38.966;2022-11-15T09:21:55;6.99;76.83
65203;HTU21D;51788;45.124;38.966;2022-11-15T09:24:40;7.02;78.13
65203;HTU21D;51788;45.124;38.966;2022-11-15T09:27:28;7.12;77.82
65203;HTU21D;51788;45.124;38.966;2022-11-15T09:30:13;7.20;76.05
65203;HTU21D;51788;45.124;38.966;2022-11-15T09:32:58;7.25;75.47
65203;HTU21D;51788;45.124;38.966;2022-11-15T09:35:42;7.25;75.34
65203;HTU21D;51788;45.124;38.966;2022-11-15T09:38:27;7.23;74.97
65203;HTU21D;51788;45.124;38.966;2022-11-15T09:44:16;7.25;75.22
65203;HTU21D;51788;45.124;38.966;2022-11-15T09:49:54;7.41;74.24
65203;HTU21D;51788;45.124;38.966;2022-11-15T09:52:26;7.44;74.09
65203;HTU21D;51788;45.124;38.966;2022-11-15T09:54:53;7.45;74.56
65203;HTU21D;51788;45.124;38.966;2022-11-15T09:58:10;7.68;74.15
65203;HTU21D;51788;45.124;38.966;2022-11-15T10:00:41;7.96;73.81
65203;HTU21D;51788;45.124;38.966;2022-11-15T10:03:25;8.01;73.26
65203;HTU21D;51788;45.124;38.966;2022-11-15T10:05:54;7.97;73.39
65203;HTU21D;51788;45.124;38.966;2022-11-15T10:08:40;7.94;72.67
65203;HTU21D;51788;45.124;38.966;2022-11-15T10:11:19;7.99;72.22
65203;HTU21D;51788;45.124;38.966;2022-11-15T10:13:47;7.99;72.16
65203;HTU21D;51788;45.124;38.966;2022-11-15T10:19:05;7.98;72.09
65203;HTU21D;51788;45.124;38.966;2022-11-15T10:21:46;8.00;72.59
65203;HTU21D;51788;45.124;38.966;2022-11-15T10:24:19;8.03;72.51
65203;HTU21D;51788;45.124;38.966;2022-11-15T10:26:47;8.07;72.07
65203;HTU21D;51788;45.124;38.966;2022-11-15T10:29:20;8.09;71.79
65203;HTU21D;51788;45.124;38.966;2022-11-15T10:31:46;8.07;71.73
65203;HTU21D;51788;45.124;38.966;2022-11-15T10:34:21;8.14;71.10
65203;HTU21D;51788;45.124;38.966;2022-11-15T10:36:58;8.16;71.07
65203;HTU21D;51788;45.124;38.966;2022-11-15T10:39:25;8.17;71.22
65203;HTU21D;51788;45.124;38.966;2022-11-15T10:41:51;8.19;70.58
65203;HTU21D;51788;45.124;38.966;2022-11-15T10:44:21;8.19;71.35
65203;HTU21D;51788;45.124;38.966;2022-11-15T10:49:21;8.39;71.58
65203;HTU21D;51788;45.124;38.966;2022-11-15T10:51:51;8.47;70.81
65203;HTU21D;51788;45.124;38.966;2022-11-15T10:54:35;8.48;69.09
65203;HTU21D;51788;45.124;38.966;2022-11-15T10:57:13;8.48;69.38
65203;HTU21D;51788;45.124;38.966;2022-11-15T10:59:53;8.47;68.83
65203;HTU21D;51788;45.124;38.966;2022-11-15T11:02:29;8.44;69.11
65203;HTU21D;51788;45.124;38.966;2022-11-15T11:04:56;8.47;69.33
65203;HTU21D;51788;45.124;38.966;2022-11-15T11:07:26;8.48;68.69
65203;HTU21D;51788;45.124;38.966;2022-11-15T11:09:59;8.47;69.52
65203;HTU21D;51788;45.124;38.966;2022-11-15T11:12:31;8.53;69.35
65203;HTU21D;51788;45.124;38.966;2022-11-15T11:14:58;8.57;68.62
65203;HTU21D;51788;45.124;38.966;2022-11-15T11:20:45;8.56;68.46
65203;HTU21D;51788;45.124;38.966;2022-11-15T11:23:27;8.60;67.96
65203;HTU21D;51788;45.124;38.966;2022-11-15T11:34:34;8.63;68.62
65203;HTU21D;51788;45.124;38.966;2022-11-15T11:37:24;8.64;68.74
65203;HTU21D;51788;45.124;38.966;2022-11-15T11:40:16;8.67;68.17
65203;HTU21D;51788;45.124;38.966;2022-11-15T11:43:19;8.66;68.01
65203;HTU21D;51788;45.124;38.966;2022-11-15T11:48:48;8.68;66.94
65203;HTU21D;51788;45.124;38.966;2022-11-15T11:51:21;8.67;67.07
65203;HTU21D;51788;45.124;38.966;2022-11-15T11:53:59;8.65;67.59
65203;HTU21D;51788;45.124;38.966;2022-11-15T11:56:32;8.64;68.03
65203;HTU21D;51788;45.124;38.966;2022-11-15T11:59:12;8.65;67.12
65203;HTU21D;51788;45.124;38.966;2022-11-15T12:01:43;8.65;66.12
65203;HTU21D;51788;45.124;38.966;2022-11-15T12:04:20;8.61;66.35
65203;HTU21D;51788;45.124;38.966;2022-11-15T12:09:38;8.59;66.85
65203;HTU21D;51788;45.124;38.966;2022-11-15T12:12:18;8.64;65.86
65203;HTU21D;51788;45.124;38.966;2022-11-15T12:14:51;8.61;66.10
65203;HTU21D;51788;45.124;38.966;2022-11-15T12:17:25;8.62;65.69
65203;HTU21D;51788;45.124;38.966;2022-11-15T12:19:56;8.60;66.51
65203;HTU21D;51788;45.124;38.966;2022-11-15T12:22:46;8.61;66.52
65203;HTU21D;51788;45.124;38.966;2022-11-15T12:25:18;8.60;66.43
65203;HTU21D;51788;45.124;38.966;2022-11-15T12:30:59;8.62;65.77
65203;HTU21D;51788;45.124;38.966;2022-11-15T12:33:50;8.61;65.90
65203;HTU21D;51788;45.124;38.966;2022-11-15T12:41:22;8.58;66.65
65203;HTU21D;51788;45.124;38.966;2022-11-15T12:43:48;8.55;66.63
65203;HTU21D;51788;45.124;38.966;2022-11-15T12:46:26;8.53;66.66
65203;HTU21D;51788;45.124;38.966;2022-11-15T13:02:37;8.43;66.39
65203;HTU21D;51788;45.124;38.966;2022-11-15T13:17:42;8.30;66.46
65203;HTU21D;51788;45.124;38.966;2022-11-15T13:22:40;8.23;66.94
65203;HTU21D;51788;45.124;38.966;2022-11-15T13:28:11;8.15;67.43
65203;HTU21D;51788;45.124;38.966;2022-11-15T13:35:42;8.02;67.59
65203;HTU21D;51788;45.124;38.966;2022-11-15T13:38:22;7.97;67.71
65203;HTU21D;51788;45.124;38.966;2022-11-15T13:40:52;7.92;67.78
65203;HTU21D;51788;45.124;38.966;2022-11-15T13:48:39;7.75;68.23
65203;HTU21D;51788;45.124;38.966;2022-11-15T13:51:10;7.68;68.53
65203;HTU21D;51788;45.124;38.966;2022-11-15T13:53:41;7.63;68.70
65203;HTU21D;51788;45.124;38.966;2022-11-15T13:56:08;7.58;68.81
65203;HTU21D;51788;45.124;38.966;2022-11-15T13:58:38;7.53;68.91
65203;HTU21D;51788;45.124;38.966;2022-11-15T14:01:05;7.48;69.06
65203;HTU21D;51788;45.124;38.966;2022-11-15T14:03:35;7.42;69.20
65203;HTU21D;51788;45.124;38.966;2022-11-15T14:08:32;7.34;69.20
65203;HTU21D;51788;45.124;38.966;2022-11-15T14:11:19;7.28;69.35
65203;HTU21D;51788;45.124;38.966;2022-11-15T14:16:37;7.15;69.72
65203;HTU21D;51788;45.124;38.966;2022-11-15T14:19:05;7.13;69.86
65203;HTU21D;51788;45.124;38.966;2022-11-15T14:21:31;7.07;69.98
65203;HTU21D;51788;45.124;38.966;2022-11-15T14:24:17;7.02;70.15
65203;HTU21D;51788;45.124;38.966;2022-11-15T14:26:44;6.97;70.28
65203;HTU21D;51788;45.124;38.966;2022-11-15T14:29:26;6.94;70.40
65203;HTU21D;51788;45.124;38.966;2022-11-15T14:31:54;6.93;70.46
65203;HTU21D;51788;45.124;38.966;2022-11-15T14:34:32;6.90;70.55
65203;HTU21D;51788;45.124;38.966;2022-11-15T14:36:58;6.88;70.64
65203;HTU21D;51788;45.124;38.966;2022-11-15T14:39:24;6.87;70.74
65203;HTU21D;51788;45.124;38.966;2022-11-15T14:41:50;6.85;70.83
65203;HTU21D;51788;45.124;38.966;2022-11-15T14:44:16;6.82;70.94
65203;HTU21D;51788;45.124;38.966;2022-11-15T14:46:44;6.80;71.05
65203;HTU21D;51788;45.124;38.966;2022-11-15T14:49:10;6.79;71.16
65203;HTU21D;51788;45.124;38.966;2022-11-15T14:51:36;6.76;71.26
65203;HTU21D;51788;45.124;38.966;2022-11-15T14:54:02;6.73;71.35
65203;HTU21D;51788;45.124;38.966;2022-11-15T14:56:28;6.70;71.45
65203;HTU21D;51788;45.124;38.966;2022-11-15T14:58:54;6.67;71.57
65203;HTU21D;51788;45.124;38.966;2022-11-15T15:01:24;6.64;71.67
65203;HTU21D;51788;45.124;38.966;2022-11-15T15:03:51;6.59;71.76
65203;HTU21D;51788;45.124;38.966;2022-11-15T15:06:19;6.59;71.85
65203;HTU21D;51788;45.124;38.966;2022-11-15T15:08:46;6.57;71.94
65203;HTU21D;51788;45.124;38.966;2022-11-15T15:13:47;6.51;72.08
65203;HTU21D;51788;45.124;38.966;2022-11-15T15:16:13;6.49;72.25
65203;HTU21D;51788;45.124;38.966;2022-11-15T15:18:39;6.45;72.36
65203;HTU21D;51788;45.124;38.966;2022-11-15T15:21:21;6.46;72.50
65203;HTU21D;51788;45.124;38.966;2022-11-15T15:23:48;6.42;72.51
65203;HTU21D;51788;45.124;38.966;2022-11-15T15:26:14;6.38;72.66
65203;HTU21D;51788;45.124;38.966;2022-11-15T15:28:40;6.36;72.76
65203;HTU21D;51788;45.124;38.966;2022-11-15T15:31:07;6.31;72.82
65203;HTU21D;51788;45.124;38.966;2022-11-15T15:33:35;6.26;72.92
65203;HTU21D;51788;45.124;38.966;2022-11-15T15:36:01;6.22;73.06
65203;HTU21D;51788;45.124;38.966;2022-11-15T15:38:27;6.19;73.19
65203;HTU21D;51788;45.124;38.966;2022-11-15T15:40:53;6.15;73.29
65203;HTU21D;51788;45.124;38.966;2022-11-15T15:43:20;6.10;73.38
65203;HTU21D;51788;45.124;38.966;2022-11-15T15:45:46;6.05;73.47
65203;HTU21D;51788;45.124;38.966;2022-11-15T15:48:16;6.02;73.55
65203;HTU21D;51788;45.124;38.966;2022-11-15T15:50:43;5.97;73.63
65203;HTU21D;51788;45.124;38.966;2022-11-15T15:53:10;5.94;73.76
65203;HTU21D;51788;45.124;38.966;2022-11-15T15:55:36;5.92;73.86
65203;HTU21D;51788;45.124;38.966;2022-11-15T15:58:04;5.91;73.97
65203;HTU21D;51788;45.124;38.966;2022-11-15T16:00:31;5.87;74.00
65203;HTU21D;51788;45.124;38.966;2022-11-15T16:02:59;5.84;74.13
65203;HTU21D;51788;45.124;38.966;2022-11-15T16:05:25;5.81;74.22
65203;HTU21D;51788;45.124;38.966;2022-11-15T16:07:51;5.78;74.29
65203;HTU21D;51788;45.124;38.966;2022-11-15T16:10:30;5.75;74.37
65203;HTU21D;51788;45.124;38.966;2022-11-15T16:12:57;5.75;74.41
65203;HTU21D;51788;45.124;38.966;2022-11-15T16:15:25;5.71;74.44
65203;HTU21D;51788;45.124;38.966;2022-11-15T16:17:53;5.68;74.48
65203;HTU21D;51788;45.124;38.966;2022-11-15T16:20:45;5.65;74.60
65203;HTU21D;51788;45.124;38.966;2022-11-15T16:23:13;5.60;74.60
65203;HTU21D;51788;45.124;38.966;2022-11-15T16:25:53;5.55;74.69
65203;HTU21D;51788;45.124;38.966;2022-11-15T16:28:21;5.53;74.73
65203;HTU21D;51788;45.124;38.966;2022-11-15T16:30:49;5.51;74.74
65203;HTU21D;51788;45.124;38.966;2022-11-15T16:33:15;5.51;74.73
65203;HTU21D;51788;45.124;38.966;2022-11-15T16:35:43;5.48;74.74
65203;HTU21D;51788;45.124;38.966;2022-11-15T16:38:17;5.47;74.76
65203;HTU21D;51788;45.124;38.966;2022-11-15T16:40:43;5.46;74.79
65203;HTU21D;51788;45.124;38.966;2022-11-15T16:43:10;5.43;74.78
65203;HTU21D;51788;45.124;38.966;2022-11-15T16:45:36;5.40;74.79
65203;HTU21D;51788;45.124;38.966;2022-11-15T16:48:03;5.37;74.80
65203;HTU21D;51788;45.124;38.966;2022-11-15T16:50:31;5.33;74.85
65203;HTU21D;51788;45.124;38.966;2022-11-15T16:52:59;5.30;74.89
65203;HTU21D;51788;45.124;38.966;2022-11-15T16:55:27;5.26;74.95
65203;HTU21D;51788;45.124;38.966;2022-11-15T16:57:55;5.25;74.97
65203;HTU21D;51788;45.124;38.966;2022-11-15T17:00:23;5.22;75.01
65203;HTU21D;51788;45.124;38.966;2022-11-15T17:02:50;5.18;75.04
65203;HTU21D;51788;45.124;38.966;2022-11-15T17:05:18;5.17;75.08
65203;HTU21D;51788;45.124;38.966;2022-11-15T17:07:46;5.15;75.12
65203;HTU21D;51788;45.124;38.966;2022-11-15T17:10:22;5.16;75.15
65203;HTU21D;51788;45.124;38.966;2022-11-15T17:12:49;5.18;75.12
65203;HTU21D;51788;45.124;38.966;2022-11-15T17:15:16;5.20;75.09
65203;HTU21D;51788;45.124;38.966;2022-11-15T17:17:42;5.20;75.06
65203;HTU21D;51788;45.124;38.966;2022-11-15T17:20:16;5.18;75.09
65203;HTU21D;51788;45.124;38.966;2022-11-15T17:22:42;5.15;75.12
65203;HTU21D;51788;45.124;38.966;2022-11-15T17:25:09;5.11;75.19
65203;HTU21D;51788;45.124;38.966;2022-11-15T17:27:34;5.08;75.24
65203;HTU21D;51788;45.124;38.966;2022-11-15T17:30:01;5.03;75.31
65203;HTU21D;51788;45.124;38.966;2022-11-15T17:32:26;5.04;75.38
65203;HTU21D;51788;45.124;38.966;2022-11-15T17:34:52;5.04;75.40
65203;HTU21D;51788;45.124;38.966;2022-11-15T17:37:18;5.06;75.38
65203;HTU21D;51788;45.124;38.966;2022-11-15T17:39:46;5.08;75.38
65203;HTU21D;51788;45.124;38.966;2022-11-15T17:42:12;5.05;75.41
65203;HTU21D;51788;45.124;38.966;2022-11-15T17:44:38;5.04;75.49
65203;HTU21D;51788;45.124;38.966;2022-11-15T17:47:04;5.06;75.38
65203;HTU21D;51788;45.124;38.966;2022-11-15T17:49:30;5.06;75.32
65203;HTU21D;51788;45.124;38.966;2022-11-15T17:51:56;5.09;75.31
65203;HTU21D;51788;45.124;38.966;2022-11-15T17:54:23;5.12;75.19
65203;HTU21D;51788;45.124;38.966;2022-11-15T17:56:48;5.12;75.12
65203;HTU21D;51788;45.124;38.966;2022-11-15T17:59:14;5.13;75.10
65203;HTU21D;51788;45.124;38.966;2022-11-15T18:01:40;5.16;75.12
65203;HTU21D;51788;45.124;38.966;2022-11-15T18:04:07;5.16;74.99
65203;HTU21D;51788;45.124;38.966;2022-11-15T18:06:35;5.10;75.00
65203;HTU21D;51788;45.124;38.966;2022-11-15T18:09:02;5.09;75.08
65203;HTU21D;51788;45.124;38.966;2022-11-15T18:11:31;5.04;75.10
65203;HTU21D;51788;45.124;38.966;2022-11-15T18:14:00;5.04;75.12
65203;HTU21D;51788;45.124;38.966;2022-11-15T18:16:28;5.06;75.13
65203;HTU21D;51788;45.124;38.966;2022-11-15T18:18:56;5.12;74.97
65203;HTU21D;51788;45.124;38.966;2022-11-15T18:21:25;5.11;74.91
65203;HTU21D;51788;45.124;38.966;2022-11-15T18:23:53;5.08;74.98